createdAt,value
2017-01-29T00:01:39.887Z,-3.81
2017-01-29T00:02:39.896Z,-3.82
2017-01-29T00:03:39.524Z,-3.83
2017-01-29T00:04:39.919Z,-3.85
2017-01-29T00:05:39.931Z,-4.03
2017-01-29T00:06:39.944Z,-4.04
2017-01-29T00:07:39.957Z,-3.96
2017-01-29T00:08:39.966Z,-4.1
2017-01-29T00:09:39.591Z,-4.07
2017-01-29T00:10:39.604Z,-4
2017-01-29T00:11:39.999Z,-3.94
2017-01-29T00:12:40.011Z,-3.88
2017-01-29T00:13:40.022Z,-3.82
2017-01-29T00:14:54.564Z,-3.88
2017-01-29T00:15:40.054Z,-3.86
2017-01-29T00:17:40.069Z,-3.94
2017-01-29T00:18:40.080Z,-3.93
2017-01-29T00:19:40.096Z,-3.94
2017-01-29T00:20:40.105Z,-3.91
2017-01-29T00:21:40.114Z,-3.9
2017-01-29T00:22:40.127Z,-3.97
2017-01-29T00:23:40.139Z,-3.94
2017-01-29T00:24:40.148Z,-4.03
2017-01-29T00:25:40.176Z,-3.99
2017-01-29T00:26:40.173Z,-4
2017-01-29T00:27:40.185Z,-4.07
2017-01-29T00:28:40.200Z,-4
2017-01-29T00:30:40.224Z,-3.96
2017-01-29T00:31:40.230Z,-3.97
2017-01-29T00:33:40.258Z,-3.86
2017-01-29T00:34:40.263Z,-3.86
2017-01-29T00:35:39.887Z,-3.83
2017-01-29T00:36:54.818Z,-3.82
2017-01-29T00:37:40.299Z,-3.75
2017-01-29T00:38:54.839Z,-3.88
2017-01-29T00:39:40.319Z,-3.82
2017-01-29T00:40:40.334Z,-3.71
2017-01-29T00:41:40.350Z,-3.72
2017-01-29T00:42:40.357Z,-3.78
2017-01-29T00:43:40.391Z,-3.75
2017-01-29T00:44:40.376Z,-3.71
2017-01-29T00:45:40.391Z,-3.62
2017-01-29T00:46:54.929Z,-3.79
2017-01-29T00:47:40.416Z,-3.75
2017-01-29T00:48:40.421Z,-3.64
2017-01-29T00:49:40.443Z,-3.72
2017-01-29T00:50:40.447Z,-3.76
2017-01-29T00:51:40.456Z,-3.86
2017-01-29T00:52:40.468Z,-3.88
2017-01-29T00:53:40.478Z,-3.75
2017-01-29T00:54:55.022Z,-3.69
2017-01-29T00:55:40.502Z,-3.75
2017-01-29T00:56:40.512Z,-3.82
2017-01-29T00:57:40.528Z,-3.85
2017-01-29T00:58:40.535Z,-3.94
2017-01-29T00:59:40.548Z,-3.91
2017-01-29T01:00:40.585Z,-4
2017-01-29T01:01:40.569Z,-3.99
2017-01-29T01:02:55.111Z,-4.06
2017-01-29T01:03:40.592Z,-3.93
2017-01-29T01:04:40.601Z,-4
2017-01-29T01:05:40.616Z,-4
2017-01-29T01:06:40.628Z,-4.1
2017-01-29T01:07:40.643Z,-4.04
2017-01-29T01:08:40.648Z,-3.94
2017-01-29T01:09:40.663Z,-3.97
2017-01-29T01:10:55.201Z,-3.97
2017-01-29T01:11:40.681Z,-4.1
2017-01-29T01:12:40.693Z,-3.99
2017-01-29T01:13:40.708Z,-3.99
2017-01-29T01:14:40.717Z,-4.01
2017-01-29T01:15:40.729Z,-4.12
2017-01-29T01:17:40.757Z,-4.11
2017-01-29T01:19:40.814Z,-4.18
2017-01-29T01:20:40.785Z,-4.15
2017-01-29T01:21:40.797Z,-4.1
2017-01-29T01:22:40.809Z,-4.14
2017-01-29T01:23:40.820Z,-4.01
2017-01-29T01:24:40.829Z,-3.99
2017-01-29T01:25:40.874Z,-4.06
2017-01-29T01:26:40.853Z,-4.12
2017-01-29T01:27:55.393Z,-4.03
2017-01-29T01:28:40.876Z,-4.1
2017-01-29T01:29:40.886Z,-4.03
2017-01-29T01:30:40.898Z,-4.01
2017-01-29T01:31:40.909Z,-4.01
2017-01-29T01:32:40.919Z,-4.14
2017-01-29T01:33:40.930Z,-4.11
2017-01-29T01:34:55.473Z,-4.1
2017-01-29T01:35:40.955Z,-4.11
2017-01-29T01:36:40.970Z,-4.15
2017-01-29T01:37:40.978Z,-4.07
2017-01-29T01:38:41.000Z,-3.99
2017-01-29T01:39:41.000Z,-3.99
2017-01-29T01:40:41.010Z,-4.15
2017-01-29T01:41:41.026Z,-4.06
2017-01-29T01:42:41.035Z,-4.07
2017-01-29T01:43:41.047Z,-4.1
2017-01-29T01:44:41.056Z,-4.14
2017-01-29T01:45:41.066Z,-4.04
2017-01-29T01:46:40.693Z,-4.06
2017-01-29T01:47:41.091Z,-4.07
2017-01-29T01:48:41.102Z,-4.18
2017-01-29T01:49:55.257Z,-4.14
2017-01-29T01:50:41.125Z,-4.04
2017-01-29T01:51:41.136Z,-4.01
2017-01-29T01:52:41.150Z,-4.14
2017-01-29T01:53:41.160Z,-4.2
2017-01-29T01:54:41.197Z,-4.25
2017-01-29T01:55:41.185Z,-4.12
2017-01-29T01:56:55.725Z,-4.18
2017-01-29T01:57:55.735Z,-4.18
2017-01-29T01:58:41.218Z,-4.22
2017-01-29T01:59:41.226Z,-4.24
2017-01-29T02:00:41.241Z,-4.17
2017-01-29T02:01:41.251Z,-4.18
2017-01-29T02:03:41.273Z,-4.12
2017-01-29T02:04:41.285Z,-4.14
2017-01-29T02:07:41.329Z,-4.17
2017-01-29T02:08:41.331Z,-4.06
2017-01-29T02:09:41.343Z,-4.01
2017-01-29T02:10:41.354Z,-3.91
2017-01-29T02:11:41.368Z,-3.99
2017-01-29T02:12:41.375Z,-3.93
2017-01-29T02:13:41.386Z,-4
2017-01-29T02:14:55.928Z,-3.94
2017-01-29T02:15:41.411Z,-3.91
2017-01-29T02:16:41.421Z,-3.97
2017-01-29T02:17:41.456Z,-3.91
2017-01-29T02:18:41.057Z,-3.88
2017-01-29T02:19:41.455Z,-3.91
2017-01-29T02:20:41.467Z,-4.01
2017-01-29T02:22:41.491Z,-4.06
2017-01-29T02:23:41.501Z,-4.21
2017-01-29T02:24:41.512Z,-4.15
2017-01-29T02:25:41.527Z,-4.36
2017-01-29T02:26:41.541Z,-4.33
2017-01-29T02:27:56.110Z,-4.38
2017-01-29T02:28:41.169Z,-4.36
2017-01-29T02:29:56.099Z,-4.28
2017-01-29T02:30:41.582Z,-4.36
2017-01-29T02:31:41.592Z,-4.25
2017-01-29T02:32:41.606Z,-4.24
2017-01-29T02:33:41.615Z,-4.3
2017-01-29T02:34:41.625Z,-4.18
2017-01-29T02:35:41.637Z,-4.29
2017-01-29T02:36:41.648Z,-4.22
2017-01-29T02:37:56.241Z,-4.22
2017-01-29T02:38:41.671Z,-4.21
2017-01-29T02:40:41.692Z,-4.04
2017-01-29T02:41:41.705Z,-4.07
2017-01-29T02:42:41.715Z,-4.1
2017-01-29T02:43:41.340Z,-4.1
2017-01-29T02:44:41.737Z,-4.22
2017-01-29T02:45:41.748Z,-4.15
2017-01-29T02:46:41.760Z,-4.22
2017-01-29T02:47:41.774Z,-4.1
2017-01-29T02:48:41.783Z,-4.18
2017-01-29T02:49:41.796Z,-4.1
2017-01-29T02:51:41.816Z,-4.18
2017-01-29T02:52:41.829Z,-4.11
2017-01-29T02:54:41.855Z,-4.14
2017-01-29T02:55:41.865Z,-4.25
2017-01-29T02:56:41.875Z,-4.18
2017-01-29T02:57:41.888Z,-4.2
2017-01-29T02:58:56.429Z,-4.12
2017-01-29T02:59:41.909Z,-4.24
2017-01-29T03:00:41.918Z,-4.21
2017-01-29T03:01:41.935Z,-4.07
2017-01-29T03:02:41.972Z,-4.14
2017-01-29T03:03:41.952Z,-4.1
2017-01-29T03:04:41.967Z,-4.17
2017-01-29T03:05:41.976Z,-4.33
2017-01-29T03:06:41.988Z,-4.15
2017-01-29T03:07:42.030Z,-4.12
2017-01-29T03:08:42.012Z,-4.03
2017-01-29T03:09:56.549Z,-4.11
2017-01-29T03:11:42.042Z,-4.06
2017-01-29T03:12:42.088Z,-4.14
2017-01-29T03:13:42.066Z,-4.2
2017-01-29T03:14:41.693Z,-4.22
2017-01-29T03:15:42.087Z,-4.28
2017-01-29T03:16:42.098Z,-4.28
2017-01-29T03:18:42.151Z,-4.25
2017-01-29T03:19:56.661Z,-4.25
2017-01-29T03:20:42.179Z,-4.29
2017-01-29T03:21:42.155Z,-4.3
2017-01-29T03:22:42.167Z,-4.22
2017-01-29T03:23:42.175Z,-4.22
2017-01-29T03:25:42.207Z,-4.17
2017-01-29T03:26:42.226Z,-4.22
2017-01-29T03:27:42.227Z,-4.24
2017-01-29T03:28:42.233Z,-4.24
2017-01-29T03:29:42.245Z,-4.35
2017-01-29T03:30:42.256Z,-4.35
2017-01-29T03:31:42.298Z,-4.36
2017-01-29T03:32:56.808Z,-4.39
2017-01-29T03:33:42.290Z,-4.36
2017-01-29T03:34:42.300Z,-4.32
2017-01-29T03:36:42.325Z,-4.3
2017-01-29T03:37:42.334Z,-4.28
2017-01-29T03:38:42.346Z,-4.21
2017-01-29T03:39:42.357Z,-4.18
2017-01-29T03:41:42.377Z,-4.18
2017-01-29T03:43:42.402Z,-4.28
2017-01-29T03:44:42.028Z,-4.3
2017-01-29T03:45:42.422Z,-4.18
2017-01-29T03:46:42.437Z,-4.14
2017-01-29T03:47:42.446Z,-4.1
2017-01-29T03:48:56.987Z,-4.11
2017-01-29T03:49:42.496Z,-4.25
2017-01-29T03:50:42.483Z,-4.2
2017-01-29T03:51:42.490Z,-4.21
2017-01-29T03:52:42.508Z,-4.24
2017-01-29T03:53:42.514Z,-4.35
2017-01-29T03:54:42.532Z,-4.46
2017-01-29T03:55:42.540Z,-4.33
2017-01-29T03:56:57.077Z,-4.42
2017-01-29T03:58:42.580Z,-4.42
2017-01-29T03:59:42.581Z,-4.4
2017-01-29T04:00:42.592Z,-4.33
2017-01-29T04:01:42.601Z,-4.4
2017-01-29T04:02:42.614Z,-4.43
2017-01-29T04:03:57.155Z,-4.42
2017-01-29T04:04:42.667Z,-4.39
2017-01-29T04:05:42.649Z,-4.33
2017-01-29T04:06:42.659Z,-4.36
2017-01-29T04:07:42.674Z,-4.4
2017-01-29T04:08:42.682Z,-4.39
2017-01-29T04:09:42.703Z,-4.4
2017-01-29T04:10:42.701Z,-4.47
2017-01-29T04:11:42.715Z,-4.4
2017-01-29T04:12:57.256Z,-4.35
2017-01-29T04:14:42.749Z,-4.22
2017-01-29T04:15:42.766Z,-4.35
2017-01-29T04:16:42.772Z,-4.38
2017-01-29T04:17:42.783Z,-4.38
2017-01-29T04:18:42.792Z,-4.33
2017-01-29T04:19:42.802Z,-4.4
2017-01-29T04:20:42.816Z,-4.39
2017-01-29T04:21:42.823Z,-4.51
2017-01-29T04:22:42.837Z,-4.39
2017-01-29T04:23:42.850Z,-4.33
2017-01-29T04:24:42.890Z,-4.28
2017-01-29T04:25:43.020Z,-4.29
2017-01-29T04:26:42.882Z,-4.35
2017-01-29T04:27:42.891Z,-4.29
2017-01-29T04:28:57.435Z,-4.38
2017-01-29T04:29:42.914Z,-4.28
2017-01-29T04:30:42.959Z,-4.24
2017-01-29T04:31:42.937Z,-4.24
2017-01-29T04:32:42.960Z,-4.2
2017-01-29T04:33:42.995Z,-4.24
2017-01-29T04:34:42.975Z,-4.24
2017-01-29T04:35:42.988Z,-4.22
2017-01-29T04:36:42.992Z,-4.15
2017-01-29T04:37:43.009Z,-4.07
2017-01-29T04:38:43.016Z,-4.18
2017-01-29T04:39:43.028Z,-4.15
2017-01-29T04:40:43.037Z,-4.2
2017-01-29T04:41:43.048Z,-4.15
2017-01-29T04:42:43.060Z,-4.18
2017-01-29T04:43:43.076Z,-4.18
2017-01-29T04:44:57.612Z,-4.21
2017-01-29T04:45:43.094Z,-4.33
2017-01-29T04:47:43.114Z,-4.07
2017-01-29T04:49:57.671Z,-4.18
2017-01-29T04:50:43.152Z,-4.14
2017-01-29T04:51:43.164Z,-4.14
2017-01-29T04:52:57.700Z,-4.17
2017-01-29T04:53:57.711Z,-4.21
2017-01-29T04:54:43.232Z,-4.24
2017-01-29T04:55:43.205Z,-4.38
2017-01-29T04:56:43.216Z,-4.39
2017-01-29T04:57:43.227Z,-4.29
2017-01-29T04:58:43.242Z,-4.24
2017-01-29T04:59:57.781Z,-4.29
2017-01-29T05:03:43.297Z,-4.43
2017-01-29T05:04:43.306Z,-4.43
2017-01-29T05:05:43.315Z,-4.43
2017-01-29T05:06:43.332Z,-4.33
2017-01-29T05:07:57.868Z,-4.33
2017-01-29T05:08:43.349Z,-4.42
2017-01-29T05:09:43.363Z,-4.39
2017-01-29T05:10:43.381Z,-4.29
2017-01-29T05:11:43.385Z,-4.22
2017-01-29T05:12:43.393Z,-4.28
2017-01-29T05:13:43.404Z,-4.29
2017-01-29T05:14:43.417Z,-4.18
2017-01-29T05:15:43.427Z,-4.3
2017-01-29T05:16:43.440Z,-4.2
2017-01-29T05:17:43.452Z,-4.25
2017-01-29T05:18:43.461Z,-4.35
2017-01-29T05:19:43.473Z,-4.4
2017-01-29T05:20:43.484Z,-4.35
2017-01-29T05:21:43.493Z,-4.51
2017-01-29T05:22:43.657Z,-4.46
2017-01-29T05:23:43.516Z,-4.53
2017-01-29T05:24:43.548Z,-4.53
2017-01-29T05:25:43.550Z,-4.46
2017-01-29T05:26:43.548Z,-4.36
2017-01-29T05:27:43.560Z,-4.43
2017-01-29T05:28:43.574Z,-4.38
2017-01-29T05:29:43.587Z,-4.39
2017-01-29T05:30:43.592Z,-4.3
2017-01-29T05:32:43.617Z,-4.51
2017-01-29T05:33:43.635Z,-4.54
2017-01-29T05:34:43.640Z,-4.63
2017-01-29T05:35:43.265Z,-4.63
2017-01-29T05:36:43.665Z,-4.71
2017-01-29T05:37:43.722Z,-4.63
2017-01-29T05:38:43.682Z,-4.6
2017-01-29T05:39:43.693Z,-4.54
2017-01-29T05:40:58.235Z,-4.5
2017-01-29T05:41:43.744Z,-4.56
2017-01-29T05:42:43.769Z,-4.49
2017-01-29T05:43:43.739Z,-4.36
2017-01-29T05:44:43.750Z,-4.36
2017-01-29T05:45:43.761Z,-4.29
2017-01-29T05:46:43.778Z,-4.39
2017-01-29T05:47:58.312Z,-4.43
2017-01-29T05:48:43.406Z,-4.49
2017-01-29T05:49:43.810Z,-4.51
2017-01-29T05:50:43.821Z,-4.46
2017-01-29T05:51:43.827Z,-4.46
2017-01-29T05:52:43.835Z,-4.43
2017-01-29T05:53:43.849Z,-4.42
2017-01-29T05:54:43.863Z,-4.43
2017-01-29T05:55:58.407Z,-4.49
2017-01-29T05:56:58.411Z,-4.5
2017-01-29T05:57:43.892Z,-4.39
2017-01-29T05:58:43.903Z,-4.36
2017-01-29T05:59:43.918Z,-4.35
2017-01-29T06:00:43.927Z,-4.39
2017-01-29T06:01:43.936Z,-4.39
2017-01-29T06:02:43.948Z,-4.39
2017-01-29T06:04:43.970Z,-4.42
2017-01-29T06:05:43.980Z,-4.38
2017-01-29T06:06:43.996Z,-4.36
2017-01-29T06:07:44.003Z,-4.43
2017-01-29T06:08:44.016Z,-4.46
2017-01-29T06:09:44.028Z,-4.5
2017-01-29T06:10:44.045Z,-4.49
2017-01-29T06:11:58.576Z,-4.38
2017-01-29T06:12:44.057Z,-4.42
2017-01-29T06:13:43.685Z,-4.39
2017-01-29T06:14:44.079Z,-4.49
2017-01-29T06:15:44.090Z,-4.51
2017-01-29T06:16:44.101Z,-4.58
2017-01-29T06:17:44.115Z,-4.54
2017-01-29T06:18:44.123Z,-4.53
2017-01-29T06:19:58.663Z,-4.56
2017-01-29T06:21:44.159Z,-4.56
2017-01-29T06:22:44.176Z,-4.5
2017-01-29T06:23:44.181Z,-4.54
2017-01-29T06:24:44.230Z,-4.56
2017-01-29T06:25:44.202Z,-4.56
2017-01-29T06:26:58.741Z,-4.5
2017-01-29T06:27:58.751Z,-4.47
2017-01-29T06:28:44.232Z,-4.5
2017-01-29T06:29:58.770Z,-4.42
2017-01-29T06:30:44.255Z,-4.35
2017-01-29T06:31:44.315Z,-4.28
2017-01-29T06:32:44.276Z,-4.28
2017-01-29T06:33:44.284Z,-4.33
2017-01-29T06:34:58.827Z,-4.39
2017-01-29T06:35:44.318Z,-4.42
2017-01-29T06:36:44.319Z,-4.58
2017-01-29T06:37:44.329Z,-4.58
2017-01-29T06:38:44.541Z,-4.51
2017-01-29T06:39:44.353Z,-4.58
2017-01-29T06:40:44.364Z,-4.53
2017-01-29T06:41:44.676Z,-4.53
2017-01-29T06:42:44.386Z,-4.56
2017-01-29T06:43:44.392Z,-4.61
2017-01-29T06:44:44.406Z,-4.71
2017-01-29T06:45:44.414Z,-4.68
2017-01-29T06:46:44.427Z,-4.74
2017-01-29T06:47:44.437Z,-4.75
2017-01-29T06:48:44.457Z,-4.71
2017-01-29T06:50:44.471Z,-4.63
2017-01-29T06:51:44.482Z,-4.65
2017-01-29T06:52:44.515Z,-4.67
2017-01-29T06:53:44.500Z,-4.69
2017-01-29T06:54:44.514Z,-4.72
2017-01-29T06:55:44.524Z,-4.74
2017-01-29T06:56:44.534Z,-4.65
2017-01-29T06:57:44.547Z,-4.74
2017-01-29T06:58:44.555Z,-4.63
2017-01-29T06:59:44.567Z,-4.72
2017-01-29T07:00:44.577Z,-4.72
2017-01-29T07:01:44.202Z,-4.6
2017-01-29T07:02:44.598Z,-4.63
2017-01-29T07:03:44.610Z,-4.54
2017-01-29T07:04:44.620Z,-4.51
2017-01-29T07:06:59.173Z,-4.5
2017-01-29T07:08:44.666Z,-4.49
2017-01-29T07:09:44.674Z,-4.43
2017-01-29T07:10:44.685Z,-4.47
2017-01-29T07:11:44.700Z,-4.39
2017-01-29T07:12:44.709Z,-4.39
2017-01-29T07:13:44.718Z,-4.35
2017-01-29T07:14:44.729Z,-4.32
2017-01-29T07:15:59.271Z,-4.33
2017-01-29T07:16:44.752Z,-4.33
2017-01-29T07:18:44.774Z,-4.25
2017-01-29T07:19:44.788Z,-4.17
2017-01-29T07:20:44.797Z,-4.17
2017-01-29T07:21:44.822Z,-4.22
2017-01-29T07:22:59.352Z,-4.21
2017-01-29T07:23:44.833Z,-4.18
2017-01-29T07:24:44.890Z,-4.3
2017-01-29T07:25:44.848Z,-4.1
2017-01-29T07:26:44.862Z,-4.11
2017-01-29T07:27:44.873Z,-4.15
2017-01-29T07:28:44.885Z,-4.12
2017-01-29T07:29:59.428Z,-4.11
2017-01-29T07:30:44.908Z,-3.97
2017-01-29T07:31:44.928Z,-3.97
2017-01-29T07:32:44.933Z,-3.94
2017-01-29T07:33:44.943Z,-4.07
2017-01-29T07:34:44.967Z,-4.01
2017-01-29T07:35:44.963Z,-4.03
2017-01-29T07:37:44.990Z,-3.91
2017-01-29T07:38:59.527Z,-3.91
2017-01-29T07:39:45.012Z,-3.93
2017-01-29T07:41:45.034Z,-3.9
2017-01-29T07:42:45.044Z,-3.91
2017-01-29T07:43:45.056Z,-3.9
2017-01-29T07:44:45.065Z,-3.96
2017-01-29T07:45:59.610Z,-3.9
2017-01-29T07:46:45.142Z,-3.86
2017-01-29T07:47:45.103Z,-3.88
2017-01-29T07:48:44.726Z,-3.86
2017-01-29T07:49:45.124Z,-3.9
2017-01-29T07:50:45.137Z,-3.85
2017-01-29T07:51:45.147Z,-3.78
2017-01-29T07:52:45.156Z,-3.62
2017-01-29T07:53:45.168Z,-3.52
2017-01-29T07:54:59.712Z,-3.43
2017-01-29T07:55:45.192Z,-3.41
2017-01-29T07:56:45.205Z,-3.28
2017-01-29T07:57:45.218Z,-3.33
2017-01-29T07:58:45.228Z,-3.31
2017-01-29T07:59:45.241Z,-3.23
2017-01-29T08:00:45.253Z,-3.1
2017-01-29T08:01:45.263Z,-2.92
2017-01-29T08:02:45.286Z,-2.92
2017-01-29T08:03:45.287Z,-2.85
2017-01-29T08:05:45.320Z,-2.89
2017-01-29T08:06:45.322Z,-2.85
2017-01-29T08:07:45.339Z,-2.84
2017-01-29T08:08:45.348Z,-2.77
2017-01-29T08:09:59.897Z,-2.73
2017-01-29T08:10:45.376Z,-2.74
2017-01-29T08:11:45.390Z,-2.73
2017-01-29T08:12:45.400Z,-2.63
2017-01-29T08:13:45.411Z,-2.68
2017-01-29T08:14:45.430Z,-2.5
2017-01-29T08:15:45.438Z,-2.46
2017-01-29T08:16:45.458Z,-2.49
2017-01-29T08:17:45.460Z,-2.37
2017-01-29T08:19:00.005Z,-2.39
2017-01-29T08:19:45.488Z,-2.27
2017-01-29T08:20:45.500Z,-2.3
2017-01-29T08:21:45.515Z,-2.21
2017-01-29T08:22:45.533Z,-2.2
2017-01-29T08:23:45.540Z,-2.09
2017-01-29T08:24:45.575Z,-2.06
2017-01-29T08:26:45.582Z,-2.06
2017-01-29T08:28:45.603Z,-1.87
2017-01-29T08:29:45.612Z,-1.87
2017-01-29T08:30:45.628Z,-1.88
2017-01-29T08:31:45.639Z,-1.8
2017-01-29T08:32:45.652Z,-1.77
2017-01-29T08:33:45.688Z,-1.79
2017-01-29T08:34:45.679Z,-1.58
2017-01-29T08:35:45.695Z,-1.46
2017-01-29T08:36:45.706Z,-1.41
2017-01-29T08:37:45.716Z,-1.35
2017-01-29T08:38:45.731Z,-1.35
2017-01-29T08:39:45.744Z,-1.3
2017-01-29T08:40:45.756Z,-1.15
2017-01-29T08:41:59.913Z,-1.13
2017-01-29T08:42:45.784Z,-1.16
2017-01-29T08:43:45.803Z,-0.98
2017-01-29T08:44:45.810Z,-0.94
2017-01-29T08:45:45.823Z,-0.97
2017-01-29T08:46:45.837Z,-0.76
2017-01-29T08:47:45.851Z,-0.85
2017-01-29T08:48:45.861Z,-0.78
2017-01-29T08:49:45.881Z,-0.69
2017-01-29T08:50:45.891Z,-0.7
2017-01-29T08:52:00.431Z,-0.65
2017-01-29T08:52:45.915Z,-0.64
2017-01-29T08:53:45.928Z,-0.67
2017-01-29T08:54:45.945Z,-0.58
2017-01-29T08:55:45.954Z,-0.52
2017-01-29T08:56:45.974Z,-0.34
2017-01-29T08:58:00.129Z,-0.36
2017-01-29T08:58:45.997Z,-0.33
2017-01-29T09:00:46.026Z,-0.26
2017-01-29T09:01:46.039Z,-0.31
2017-01-29T09:02:46.054Z,-0.23
2017-01-29T09:03:46.065Z,-0.07
2017-01-29T09:04:46.080Z,-0.01
2017-01-29T09:06:00.626Z,0.07
2017-01-29T09:06:46.109Z,0.1
2017-01-29T09:07:46.124Z,0.1
2017-01-29T09:08:46.138Z,0.02
2017-01-29T09:09:46.152Z,0.15
2017-01-29T09:10:46.167Z,0.28
2017-01-29T09:11:46.177Z,0.29
2017-01-29T09:12:45.806Z,0.31
2017-01-29T09:14:00.736Z,0.29
2017-01-29T09:15:00.762Z,0.38
2017-01-29T09:15:46.234Z,0.51
2017-01-29T09:17:46.264Z,0.39
2017-01-29T09:18:46.277Z,0.36
2017-01-29T09:19:46.292Z,0.42
2017-01-29T09:20:46.306Z,0.5
2017-01-29T09:21:46.323Z,0.49
2017-01-29T09:23:00.865Z,0.62
2017-01-29T09:23:46.349Z,0.72
2017-01-29T09:24:46.362Z,0.88
2017-01-29T09:25:46.376Z,0.84
2017-01-29T09:26:46.394Z,0.9
2017-01-29T09:27:46.409Z,0.87
2017-01-29T09:28:46.423Z,0.9
2017-01-29T09:30:00.968Z,0.84
2017-01-29T09:30:46.458Z,0.98
2017-01-29T09:31:46.471Z,0.93
2017-01-29T09:33:46.496Z,1.04
2017-01-29T09:34:46.512Z,1.18
2017-01-29T09:35:46.543Z,1.08
2017-01-29T09:37:01.075Z,1.2
2017-01-29T09:37:46.561Z,1.15
2017-01-29T09:38:46.600Z,1.18
2017-01-29T09:39:46.199Z,1.36
2017-01-29T09:40:46.600Z,1.33
2017-01-29T09:41:46.229Z,1.33
2017-01-29T09:42:46.249Z,1.36
2017-01-29T09:43:46.648Z,1.5
2017-01-29T09:45:01.194Z,1.5
2017-01-29T09:45:46.678Z,1.52
2017-01-29T09:46:46.693Z,1.47
2017-01-29T09:47:46.709Z,1.5
2017-01-29T09:48:46.338Z,1.68
2017-01-29T09:49:46.738Z,1.65
2017-01-29T09:50:46.369Z,1.72
2017-01-29T09:51:46.385Z,1.79
2017-01-29T09:52:46.786Z,1.87
2017-01-29T09:54:01.332Z,1.98
2017-01-29T09:54:46.823Z,2.1
2017-01-29T09:55:46.832Z,2.03
2017-01-29T09:56:46.471Z,2
2017-01-29T09:57:46.865Z,2.2
2017-01-29T09:58:46.880Z,2.31
2017-01-29T09:59:46.900Z,2.3
2017-01-29T10:03:46.957Z,2.36
2017-01-29T10:04:46.976Z,2.53
2017-01-29T10:05:46.988Z,2.46
2017-01-29T10:06:47.009Z,2.48
2017-01-29T10:08:01.554Z,2.53
2017-01-29T10:08:47.040Z,2.53
2017-01-29T10:09:47.054Z,2.66
2017-01-29T10:10:47.070Z,2.77
2017-01-29T10:11:47.087Z,2.79
2017-01-29T10:13:47.119Z,2.77
2017-01-29T10:14:47.140Z,2.69
2017-01-29T10:15:47.149Z,2.75
2017-01-29T10:17:01.700Z,2.82
2017-01-29T10:17:47.184Z,2.84
2017-01-29T10:18:47.200Z,2.89
2017-01-29T10:19:47.216Z,2.93
2017-01-29T10:20:46.845Z,2.84
2017-01-29T10:21:47.251Z,2.9
2017-01-29T10:22:47.264Z,2.99
2017-01-29T10:23:47.280Z,2.96
2017-01-29T10:24:47.300Z,3
2017-01-29T10:26:01.844Z,3.05
2017-01-29T10:26:47.335Z,3.02
2017-01-29T10:27:47.345Z,3.14
2017-01-29T10:28:47.361Z,3.13
2017-01-29T10:29:47.381Z,3.06
2017-01-29T10:30:47.393Z,3.14
2017-01-29T10:31:47.412Z,3.15
2017-01-29T10:33:01.960Z,3.14
2017-01-29T10:33:47.447Z,3.1
2017-01-29T10:34:47.462Z,3.13
2017-01-29T10:35:47.480Z,3.2
2017-01-29T10:36:47.495Z,3.26
2017-01-29T10:37:47.507Z,3.23
2017-01-29T10:38:47.527Z,3.39
2017-01-29T10:40:02.076Z,3.39
2017-01-29T10:40:47.560Z,3.31
2017-01-29T10:42:02.106Z,3.2
2017-01-29T10:43:02.122Z,3.24
2017-01-29T10:44:47.624Z,3.29
2017-01-29T10:45:47.641Z,3.35
2017-01-29T10:46:47.268Z,3.33
2017-01-29T10:47:47.677Z,3.52
2017-01-29T10:49:02.222Z,3.6
2017-01-29T10:49:47.706Z,3.66
2017-01-29T10:50:47.338Z,3.72
2017-01-29T10:51:47.355Z,3.75
2017-01-29T10:52:47.367Z,3.83
2017-01-29T10:53:47.770Z,3.75
2017-01-29T10:54:47.401Z,3.75
2017-01-29T10:55:47.420Z,3.79
2017-01-29T10:56:47.433Z,4
2017-01-29T10:57:47.837Z,4.04
2017-01-29T10:58:47.853Z,4.04
2017-01-29T10:59:47.486Z,4
2017-01-29T11:00:47.499Z,4.04
2017-01-29T11:01:47.905Z,4.02
2017-01-29T11:02:47.534Z,4.12
2017-01-29T11:03:47.551Z,4.09
2017-01-29T11:05:02.098Z,4
2017-01-29T11:05:47.583Z,4.04
2017-01-29T11:06:47.600Z,4.14
2017-01-29T11:07:47.615Z,4.15
2017-01-29T11:09:47.651Z,4.11
2017-01-29T11:10:48.053Z,4.23
2017-01-29T11:11:48.073Z,4.23
2017-01-29T11:13:02.618Z,4.4
2017-01-29T11:13:47.721Z,4.44
2017-01-29T11:14:48.120Z,4.41
2017-01-29T11:15:47.750Z,4.47
2017-01-29T11:16:47.771Z,4.44
2017-01-29T11:17:48.169Z,4.45
2017-01-29T11:18:48.186Z,4.33
2017-01-29T11:20:48.224Z,4.47
2017-01-29T11:21:47.851Z,4.51
2017-01-29T11:22:47.868Z,4.5
2017-01-29T11:23:48.277Z,4.59
2017-01-29T11:24:48.290Z,4.54
2017-01-29T11:25:48.304Z,4.45
2017-01-29T11:26:47.935Z,4.47
2017-01-29T11:28:02.870Z,4.75
2017-01-29T11:28:48.355Z,4.73
2017-01-29T11:29:47.985Z,4.8
2017-01-29T11:30:48.389Z,4.73
2017-01-29T11:31:48.409Z,4.72
2017-01-29T11:32:48.422Z,4.8
2017-01-29T11:33:48.438Z,4.7
2017-01-29T11:34:48.455Z,4.67
2017-01-29T11:35:48.085Z,4.72
2017-01-29T11:36:48.490Z,4.85
2017-01-29T11:38:48.527Z,4.91
2017-01-29T11:39:48.546Z,4.96
2017-01-29T11:40:48.559Z,5.1
2017-01-29T11:41:48.577Z,4.99
2017-01-29T11:42:48.593Z,4.97
2017-01-29T11:43:48.611Z,4.96
2017-01-29T11:45:03.155Z,4.99
2017-01-29T11:45:48.643Z,4.91
2017-01-29T11:46:48.662Z,5.03
2017-01-29T11:47:48.677Z,5.07
2017-01-29T11:48:48.697Z,5.06
2017-01-29T11:49:48.719Z,5.02
2017-01-29T11:50:48.727Z,5.04
2017-01-29T11:52:03.277Z,4.96
2017-01-29T11:52:48.376Z,5
2017-01-29T11:53:48.394Z,4.94
2017-01-29T11:54:48.409Z,5.02
2017-01-29T11:55:48.816Z,5.15
2017-01-29T11:57:03.367Z,5.2
2017-01-29T11:57:48.853Z,5.28
2017-01-29T11:58:48.479Z,5.33
2017-01-29T12:00:03.415Z,5.28
2017-01-29T12:01:03.431Z,5.27
2017-01-29T12:01:48.917Z,5.45
2017-01-29T12:02:48.935Z,5.48
2017-01-29T12:03:48.950Z,5.48
2017-01-29T12:04:48.581Z,5.51
2017-01-29T12:05:48.987Z,5.54
2017-01-29T12:06:49.004Z,5.57
2017-01-29T12:08:03.551Z,5.71
2017-01-29T12:09:49.054Z,5.74
2017-01-29T12:10:49.076Z,5.83
2017-01-29T12:11:49.089Z,5.81
2017-01-29T12:12:48.721Z,5.76
2017-01-29T12:13:49.134Z,5.75
2017-01-29T12:15:03.677Z,5.74
2017-01-29T12:16:03.692Z,5.71
2017-01-29T12:16:49.175Z,5.81
2017-01-29T12:17:49.198Z,5.81
2017-01-29T12:18:49.211Z,5.83
2017-01-29T12:19:49.239Z,5.86
2017-01-29T12:20:49.246Z,5.91
2017-01-29T12:21:49.263Z,6
2017-01-29T12:24:03.830Z,6.08
2017-01-29T12:24:49.314Z,6.12
2017-01-29T12:25:49.334Z,6.14
2017-01-29T12:26:49.356Z,6.11
2017-01-29T12:27:49.368Z,6.04
2017-01-29T12:28:49.387Z,6.18
2017-01-29T12:29:49.430Z,6.25
2017-01-29T12:30:49.425Z,6.17
2017-01-29T12:32:03.971Z,6.33
2017-01-29T12:32:49.463Z,6.38
2017-01-29T12:33:49.475Z,6.38
2017-01-29T12:34:49.494Z,6.41
2017-01-29T12:35:49.509Z,6.31
2017-01-29T12:36:49.528Z,6.28
2017-01-29T12:37:49.547Z,6.25
2017-01-29T12:38:49.562Z,6.33
2017-01-29T12:40:04.116Z,6.37
2017-01-29T12:40:49.600Z,6.37
2017-01-29T12:42:49.634Z,6.46
2017-01-29T12:43:49.656Z,6.44
2017-01-29T12:44:49.668Z,6.4
2017-01-29T12:45:49.686Z,6.31
2017-01-29T12:46:49.705Z,6.51
2017-01-29T12:47:49.725Z,6.58
2017-01-29T12:49:04.270Z,6.56
2017-01-29T12:50:04.288Z,6.59
2017-01-29T12:50:49.774Z,6.71
2017-01-29T12:51:49.791Z,6.58
2017-01-29T12:52:49.818Z,6.64
2017-01-29T12:53:49.834Z,6.59
2017-01-29T12:55:04.380Z,6.64
2017-01-29T12:55:49.868Z,6.79
2017-01-29T12:57:49.903Z,6.55
2017-01-29T12:58:49.919Z,6.64
2017-01-29T12:59:49.941Z,6.74
2017-01-29T13:00:49.958Z,6.58
2017-01-29T13:01:49.977Z,6.61
2017-01-29T13:02:49.991Z,6.56
2017-01-29T13:03:50.010Z,6.61
2017-01-29T13:04:50.026Z,6.54
2017-01-29T13:05:50.047Z,6.49
2017-01-29T13:06:50.063Z,6.41
2017-01-29T13:07:50.084Z,6.3
2017-01-29T13:08:50.099Z,6.33
2017-01-29T13:10:50.137Z,6.12
2017-01-29T13:11:50.155Z,6.11
2017-01-29T13:12:50.172Z,6.22
2017-01-29T13:13:50.265Z,6.06
2017-01-29T13:14:50.205Z,6.25
2017-01-29T13:15:50.226Z,6.21
2017-01-29T13:16:50.246Z,6.19
2017-01-29T13:18:04.794Z,6.18
2017-01-29T13:18:49.892Z,6.15
2017-01-29T13:20:04.828Z,6.15
2017-01-29T13:20:49.926Z,6.09
2017-01-29T13:21:50.335Z,6.11
2017-01-29T13:22:50.352Z,6.18
2017-01-29T13:23:50.371Z,6.11
2017-01-29T13:25:50.405Z,6.14
2017-01-29T13:27:04.957Z,6.09
2017-01-29T13:28:50.457Z,6.09
2017-01-29T13:29:50.476Z,6.21
2017-01-29T13:30:50.494Z,6.25
2017-01-29T13:31:50.510Z,6.3
2017-01-29T13:32:50.144Z,6.31
2017-01-29T13:33:50.550Z,6.4
2017-01-29T13:34:50.564Z,6.37
2017-01-29T13:35:50.583Z,6.27
2017-01-29T13:37:50.616Z,6.51
2017-01-29T13:38:50.646Z,6.49
2017-01-29T13:39:50.652Z,6.48
2017-01-29T13:40:50.673Z,6.46
2017-01-29T13:41:50.689Z,6.3
2017-01-29T13:43:05.244Z,6.31
2017-01-29T13:43:50.754Z,6.28
2017-01-29T13:44:50.742Z,6.36
2017-01-29T13:45:50.797Z,6.48
2017-01-29T13:46:50.829Z,6.34
2017-01-29T13:47:50.800Z,6.38
2017-01-29T13:48:50.824Z,6.33
2017-01-29T13:49:50.836Z,6.46
2017-01-29T13:50:50.852Z,6.43
2017-01-29T13:52:05.402Z,6.51
2017-01-29T13:52:50.890Z,6.49
2017-01-29T13:53:50.535Z,6.41
2017-01-29T13:54:50.925Z,6.54
2017-01-29T13:55:50.942Z,6.43
2017-01-29T13:56:50.967Z,6.36
2017-01-29T13:57:50.979Z,6.43
2017-01-29T14:01:51.054Z,6.55
2017-01-29T14:02:51.073Z,6.66
2017-01-29T14:03:51.089Z,6.52
2017-01-29T14:04:51.114Z,6.49
2017-01-29T14:05:50.748Z,6.51